Time;durP1;ratioP1;P1;durP2;ratioP2;P2;SDS_P1;SDS_P2;PMS_P1;PMS_P2;Temp;Humidity;BMP_temperature;BMP_pressure;BME280_temperature;BME280_humidity;BME280_pressure;Samples;Min_cycle;Max_cycle;Signal;HPM_P1;HPM_P2
2023/06/20 00:01:07;;;;;;;11.95;9.25;;;17.80;99.90;;;;;;4993046;28;20240;-64
2023/06/20 00:03:34;;;;;;;10.50;8.80;;;17.80;99.90;;;;;;4981381;28;20217;-64
2023/06/20 00:06:02;;;;;;;12.27;9.50;;;17.60;99.90;;;;;;4996034;28;20202;-64
2023/06/20 00:08:29;;;;;;;12.75;9.20;;;17.60;99.90;;;;;;5001183;28;20241;-64
2023/06/20 00:10:56;;;;;;;11.63;8.65;;;17.60;99.90;;;;;;4994299;28;20213;-64
2023/06/20 00:13:23;;;;;;;11.00;8.73;;;17.90;99.90;;;;;;5003658;28;20201;-64
2023/06/20 00:15:50;;;;;;;11.32;8.05;;;17.90;99.90;;;;;;5000410;28;20222;-64
2023/06/20 00:18:18;;;;;;;11.52;9.02;;;17.40;99.90;;;;;;5003983;28;20210;-64
2023/06/20 00:20:46;;;;;;;11.20;8.52;;;17.80;99.90;;;;;;4963591;28;20303;-64
2023/06/20 00:23:14;;;;;;;14.35;9.00;;;17.70;99.90;;;;;;5006652;28;20275;-64
2023/06/20 00:25:41;;;;;;;12.32;8.95;;;17.70;99.90;;;;;;4996336;28;20206;-64
2023/06/20 00:28:08;;;;;;;11.70;8.90;;;17.70;99.90;;;;;;4995736;28;20206;-64
2023/06/20 00:30:35;;;;;;;10.98;8.65;;;17.70;99.90;;;;;;5007484;28;20289;-64
2023/06/20 00:33:02;;;;;;;10.90;8.35;;;17.70;99.90;;;;;;5004706;28;20199;-64
2023/06/20 00:35:28;;;;;;;9.98;8.20;;;17.70;99.90;;;;;;4976268;28;20225;-64
2023/06/20 00:37:55;;;;;;;10.75;8.13;;;17.60;99.90;;;;;;4985814;28;20203;-64
2023/06/20 00:40:23;;;;;;;10.57;8.23;;;17.60;99.90;;;;;;4992044;28;20237;-64
2023/06/20 00:42:50;;;;;;;11.82;9.23;;;17.40;99.90;;;;;;4993595;28;20217;-64
2023/06/20 00:45:28;;;;;;;14.20;8.77;;;17.40;99.90;;;;;;5003668;28;20500;-64
2023/06/20 00:47:57;;;;;;;15.02;9.50;;;17.30;99.90;;;;;;5006039;28;20327;-64
2023/06/20 00:50:26;;;;;;;9.52;8.50;;;17.30;99.90;;;;;;5006952;28;20215;-64
2023/06/20 00:53:11;;;;;;;11.65;8.55;;;17.20;99.90;;;;;;4935966;28;21142;-64
2023/06/20 00:55:40;;;;;;;12.32;8.90;;;17.30;99.90;;;;;;4955381;28;20678;-64
2023/06/20 00:58:07;;;;;;;10.85;8.52;;;17.10;99.90;;;;;;4956476;28;20207;-64
2023/06/20 01:00:35;;;;;;;11.35;8.25;;;17.10;99.90;;;;;;4960504;28;20271;-64
2023/06/20 01:03:05;;;;;;;11.52;9.40;;;17.20;99.90;;;;;;4963638;28;20977;-64
2023/06/20 01:05:32;;;;;;;13.38;8.82;;;17.20;99.90;;;;;;4963503;28;20202;-64
2023/06/20 01:08:07;;;;;;;13.05;9.82;;;17.20;99.90;;;;;;4931708;28;20226;-64
2023/06/20 01:10:44;;;;;;;13.13;9.18;;;17.10;99.90;;;;;;4960395;28;20201;-63
2023/06/20 01:13:20;;;;;;;11.93;9.45;;;17.20;99.90;;;;;;5001128;28;20703;-64
2023/06/20 01:15:55;;;;;;;10.85;9.35;;;17.20;99.90;;;;;;5005109;28;20677;-64
2023/06/20 01:18:33;;;;;;;13.20;9.82;;;17.20;99.90;;;;;;5000641;28;20216;-64
2023/06/20 01:21:07;;;;;;;13.63;9.40;;;17.20;99.90;;;;;;5010440;28;20229;-63
2023/06/20 01:23:42;;;;;;;14.77;10.27;;;17.40;99.90;;;;;;4981280;28;20205;-64
2023/06/20 01:26:17;;;;;;;13.60;10.00;;;17.40;99.90;;;;;;5009268;28;20880;-64
2023/06/20 01:28:50;;;;;;;14.23;10.15;;;17.40;99.90;;;;;;4994925;28;20292;-64
2023/06/20 01:31:22;;;;;;;15.57;10.88;;;17.40;99.90;;;;;;5005569;28;20306;-64
2023/06/20 01:33:53;;;;;;;16.48;10.65;;;17.40;99.90;;;;;;4995596;28;20225;-64
2023/06/20 01:36:22;;;;;;;16.17;11.05;;;17.40;99.90;;;;;;5010805;28;20198;-64
2023/06/20 01:38:55;;;;;;;17.35;10.75;;;17.30;99.90;;;;;;4976881;28;20234;-64
2023/06/20 01:41:25;;;;;;;12.75;10.50;;;17.30;99.90;;;;;;5009702;28;21871;-64
2023/06/20 01:43:56;;;;;;;17.70;12.13;;;17.30;99.90;;;;;;4981848;28;20206;-64
2023/06/20 01:46:24;;;;;;;15.77;11.90;;;17.20;99.90;;;;;;5000998;28;20897;-64
2023/06/20 01:48:52;;;;;;;15.07;11.77;;;17.30;99.90;;;;;;4993759;28;20213;-64
2023/06/20 01:51:20;;;;;;;14.15;11.32;;;17.30;99.90;;;;;;5012655;28;20206;-64
2023/06/20 01:53:48;;;;;;;16.58;12.15;;;17.40;99.90;;;;;;4976372;28;20213;-64
2023/06/20 01:56:18;;;;;;;15.20;11.07;;;17.40;99.90;;;;;;5012943;28;20194;-64
2023/06/20 01:58:47;;;;;;;14.93;12.18;;;17.50;99.90;;;;;;4985910;28;20210;-64
2023/06/20 02:01:16;;;;;;;17.38;12.05;;;17.40;99.90;;;;;;5001237;28;20241;-63
2023/06/20 02:03:44;;;;;;;13.73;11.07;;;17.30;99.90;;;;;;5007655;28;20202;-64
2023/06/20 02:06:13;;;;;;;16.38;11.88;;;17.30;99.90;;;;;;4997230;28;20210;-64
2023/06/20 02:08:41;;;;;;;15.93;11.43;;;17.00;99.90;;;;;;4988781;28;20988;-64
2023/06/20 02:11:09;;;;;;;12.98;11.32;;;17.00;99.90;;;;;;5004655;28;20209;-64
2023/06/20 02:13:38;;;;;;;14.88;10.75;;;16.90;99.90;;;;;;4990316;28;20209;-64
2023/06/20 02:16:08;;;;;;;18.08;12.60;;;16.90;99.90;;;;;;5002430;28;20212;-64
2023/06/20 02:18:35;;;;;;;18.13;11.43;;;16.90;99.90;;;;;;5001471;28;20210;-63
2023/06/20 02:21:05;;;;;;;16.70;12.52;;;17.10;99.90;;;;;;4997589;28;20455;-64
2023/06/20 02:23:35;;;;;;;18.50;12.75;;;16.90;68.10;;;;;;5007631;28;20198;-64
2023/06/20 02:26:07;;;;;;;15.10;11.57;;;16.80;68.00;;;;;;4977273;28;21335;-63
2023/06/20 02:28:35;;;;;;;18.17;12.48;;;18.50;72.20;;;;;;5005001;28;20201;-66
2023/06/20 02:31:05;;;;;;;16.70;12.95;;;16.80;70.90;;;;;;4988567;28;20220;-64
2023/06/20 02:33:33;;;;;;;19.33;12.23;;;16.70;66.80;;;;;;4997650;28;20206;-64
2023/06/20 02:36:02;;;;;;;17.27;13.00;;;16.70;68.10;;;;;;4993157;28;21078;-65
2023/06/20 02:38:31;;;;;;;18.30;13.25;;;16.70;68.00;;;;;;5004834;28;20206;-64
2023/06/20 02:40:58;;;;;;;21.67;13.02;;;16.60;68.00;;;;;;4969928;28;21009;-63
2023/06/20 02:43:25;;;;;;;19.02;13.13;;;16.70;71.00;;;;;;4988982;28;20221;-64
2023/06/20 02:46:00;;;;;;;20.48;13.93;;;16.70;70.90;;;;;;4975552;28;20229;-63
2023/06/20 02:48:43;;;;;;;19.73;13.18;;;16.70;68.90;;;;;;4986484;28;20213;-63
2023/06/20 02:51:16;;;;;;;20.35;13.52;;;16.70;69.30;;;;;;5004116;28;20207;-63
2023/06/20 02:53:50;;;;;;;20.77;13.80;;;16.50;73.80;;;;;;4980919;28;20226;-64
2023/06/20 02:56:18;;;;;;;21.35;13.73;;;16.60;74.90;;;;;;5004245;28;20210;-64
2023/06/20 02:58:48;;;;;;;18.73;13.27;;;16.60;76.00;;;;;;4971304;28;20203;-64
2023/06/20 03:01:24;;;;;;;17.65;13.50;;;16.60;76.50;;;;;;4981220;28;20226;-64
2023/06/20 03:03:56;;;;;;;18.25;12.90;;;16.50;75.60;;;;;;4982212;28;20246;-64
2023/06/20 03:06:27;;;;;;;18.35;13.25;;;16.60;76.00;;;;;;5005773;28;20194;-64
2023/06/20 03:08:55;;;;;;;21.25;13.65;;;16.60;73.10;;;;;;5004478;28;20342;-64
2023/06/20 03:11:22;;;;;;;18.13;12.95;;;16.50;73.20;;;;;;5006097;28;20217;-64
2023/06/20 03:13:49;;;;;;;19.70;13.07;;;;;;;;;;4968317;28;20229;-64
2023/06/20 03:16:16;;;;;;;20.13;12.98;;;16.60;72.60;;;;;;4995066;28;20198;-64
2023/06/20 03:18:43;;;;;;;17.38;13.45;;;16.70;71.80;;;;;;4995623;28;20217;-64
2023/06/20 03:21:11;;;;;;;17.98;13.60;;;16.50;73.70;;;;;;4991147;28;20230;-63
2023/06/20 03:23:38;;;;;;;16.55;12.68;;;16.50;74.20;;;;;;5009659;28;20209;-63
2023/06/20 03:26:06;;;;;;;18.83;13.43;;;16.50;77.20;;;;;;5007141;28;20198;-64
2023/06/20 03:28:32;;;;;;;19.75;13.18;;;16.60;77.20;;;;;;4971633;28;20214;-63
2023/06/20 03:30:59;;;;;;;20.02;13.65;;;18.60;79.50;;;;;;4978247;28;20212;-64
2023/06/20 03:33:26;;;;;;;20.42;13.70;;;16.60;77.20;;;;;;4991485;28;20281;-64
2023/06/20 03:35:54;;;;;;;22.23;13.32;;;16.60;80.20;;;;;;4995093;28;20209;-64
2023/06/20 03:38:22;;;;;;;17.70;14.45;;;16.60;80.90;;;;;;4993577;28;20293;-64
2023/06/20 03:40:49;;;;;;;19.30;13.95;;;16.70;80.20;;;;;;5007595;28;20210;-64
2023/06/20 03:43:16;;;;;;;19.25;14.48;;;16.70;80.70;;;;;;4978319;28;20213;-63
2023/06/20 03:45:43;;;;;;;16.65;13.43;;;16.70;76.50;;;;;;4998806;28;20206;-64
2023/06/20 03:48:10;;;;;;;19.05;13.35;;;16.80;77.30;;;;;;4991180;28;22990;-64
2023/06/20 03:50:37;;;;;;;21.30;13.75;;;16.90;77.00;;;;;;5004079;28;20230;-63
2023/06/20 03:53:03;;;;;;;21.65;13.52;;;16.90;76.90;;;;;;4977919;28;20202;-64
2023/06/20 03:55:31;;;;;;;16.25;12.20;;;16.90;77.60;;;;;;5008045;28;20194;-64
2023/06/20 03:57:58;;;;;;;17.77;12.13;;;16.60;76.80;;;;;;4960691;28;20917;-64
2023/06/20 04:00:26;;;;;;;17.70;12.02;;;17.10;77.30;;;;;;5001019;28;20214;-63
2023/06/20 04:02:53;;;;;;;16.35;11.60;;;17.40;72.80;;;;;;4990141;28;20230;-63
2023/06/20 04:05:19;;;;;;;19.73;12.60;;;17.20;69.90;;;;;;4992125;28;20222;-64
2023/06/20 04:07:46;;;;;;;17.90;12.18;;;17.30;65.00;;;;;;4994558;28;20245;-65
2023/06/20 04:10:14;;;;;;;18.98;12.30;;;17.30;65.60;;;;;;4996664;28;20199;-64
2023/06/20 04:12:43;;;;;;;16.45;12.60;;;17.40;66.50;;;;;;5010740;28;20198;-64
2023/06/20 04:15:10;;;;;;;19.33;12.10;;;17.40;64.20;;;;;;4977365;28;23803;-64
2023/06/20 04:17:39;;;;;;;14.95;11.27;;;17.40;60.50;;;;;;5004543;28;20209;-64
2023/06/20 04:20:11;;;;;;;15.23;11.35;;;17.40;57.40;;;;;;4998881;28;20221;-64
2023/06/20 04:22:40;;;;;;;17.75;11.95;;;17.40;55.10;;;;;;5001115;28;20236;-64
2023/06/20 04:25:08;;;;;;;17.08;12.02;;;17.40;55.30;;;;;;4995835;28;20220;-64
2023/06/20 04:27:35;;;;;;;19.48;12.57;;;17.30;56.20;;;;;;5002134;28;20601;-64
2023/06/20 04:30:04;;;;;;;17.25;12.63;;;17.30;57.10;;;;;;4981445;28;20951;-64
2023/06/20 04:32:30;;;;;;;17.30;12.18;;;17.30;62.70;;;;;;5006028;28;20210;-64
2023/06/20 04:34:57;;;;;;;15.75;12.60;;;17.30;67.30;;;;;;4999181;28;20232;-64
2023/06/20 04:37:24;;;;;;;18.67;12.77;;;17.20;69.10;;;;;;5002562;28;20524;-63
2023/06/20 04:39:51;;;;;;;16.65;11.20;;;17.40;70.10;;;;;;4990171;28;20232;-64
2023/06/20 04:42:18;;;;;;;18.58;11.45;;;17.40;69.20;;;;;;5000152;28;20226;-64
2023/06/20 04:44:45;;;;;;;16.35;11.48;;;17.60;68.60;;;;;;5003277;28;20201;-64
2023/06/20 04:47:13;;;;;;;18.20;11.90;;;17.60;68.60;;;;;;4981767;28;20206;-64
2023/06/20 04:49:40;;;;;;;16.20;11.77;;;17.80;68.40;;;;;;4991546;28;20202;-64
2023/06/20 04:52:07;;;;;;;13.90;10.65;;;18.10;59.70;;;;;;5013872;28;20833;-64
2023/06/20 04:54:34;;;;;;;12.35;9.93;;;18.30;54.20;;;;;;5000518;28;21098;-64
2023/06/20 04:57:02;;;;;;;13.40;9.98;;;18.40;40.50;;;;;;4988784;28;20775;-64
2023/06/20 04:59:29;;;;;;;14.95;9.32;;;;;;;;;;4999743;28;20218;-64
2023/06/20 05:01:56;;;;;;;16.05;9.90;;;18.60;19.70;;;;;;4971295;28;20241;-64
2023/06/20 05:04:24;;;;;;;11.88;9.70;;;18.60;14.90;;;;;;4997006;28;20222;-64
2023/06/20 05:06:51;;;;;;;16.42;9.75;;;18.70;8.90;;;;;;4997316;28;20230;-64
2023/06/20 05:09:17;;;;;;;13.60;9.52;;;19.40;8.10;;;;;;4993048;28;20225;-63
2023/06/20 05:11:44;;;;;;;11.40;9.38;;;18.70;10.60;;;;;;4986567;28;20230;-64
2023/06/20 05:14:11;;;;;;;12.68;8.88;;;18.80;3.70;;;;;;5000301;28;20222;-64
2023/06/20 05:16:38;;;;;;;13.57;8.63;;;18.80;3.30;;;;;;4977939;28;20240;-64
2023/06/20 05:19:05;;;;;;;13.32;9.65;;;19.10;1.00;;;;;;5003832;28;20206;-64
2023/06/20 05:21:33;;;;;;;11.40;8.57;;;19.10;1.00;;;;;;4997833;28;20221;-64
2023/06/20 05:24:00;;;;;;;11.02;7.78;;;19.30;1.00;;;;;;5011919;28;20205;-64
2023/06/20 05:26:26;;;;;;;7.78;6.80;;;19.30;1.00;;;;;;5001857;28;20202;-64
2023/06/20 05:28:53;;;;;;;13.02;7.65;;;19.50;1.00;;;;;;5003115;28;20206;-64
2023/06/20 05:31:20;;;;;;;9.15;6.80;;;19.90;1.00;;;;;;4983276;28;20230;-64
2023/06/20 05:33:47;;;;;;;7.40;5.97;;;19.80;1.00;;;;;;5012136;28;20210;-64
2023/06/20 05:36:14;;;;;;;6.90;5.80;;;19.80;1.00;;;;;;5003037;28;20297;-64
2023/06/20 05:38:42;;;;;;;8.00;5.55;;;19.80;1.00;;;;;;5007819;28;20206;-64
2023/06/20 05:41:10;;;;;;;6.80;6.00;;;19.90;1.00;;;;;;4999756;28;20199;-64
2023/06/20 05:43:37;;;;;;;6.85;6.18;;;19.90;1.00;;;;;;5000892;28;20232;-64
2023/06/20 05:46:04;;;;;;;10.18;6.32;;;19.60;1.00;;;;;;4989674;28;20202;-63
2023/06/20 05:48:32;;;;;;;9.23;5.68;;;19.60;1.00;;;;;;5012530;28;20206;-63
2023/06/20 05:51:00;;;;;;;9.95;6.72;;;19.50;1.00;;;;;;5001910;28;20210;-64
2023/06/20 05:53:26;;;;;;;12.40;6.72;;;19.70;1.00;;;;;;5011071;28;20194;-64
2023/06/20 05:55:55;;;;;;;9.45;5.68;;;19.90;1.00;;;;;;5010506;28;20659;-64
2023/06/20 05:58:21;;;;;;;11.63;6.30;;;20.10;1.00;;;;;;4989344;28;20222;-64
2023/06/20 06:00:49;;;;;;;5.28;4.75;;;19.90;1.00;;;;;;5005284;28;20214;-64
2023/06/20 06:03:16;;;;;;;7.45;6.07;;;20.20;1.00;;;;;;4979566;28;20272;-64
2023/06/20 06:05:42;;;;;;;11.43;7.03;;;20.10;1.00;;;;;;5005854;28;20209;-64
2023/06/20 06:08:09;;;;;;;6.03;4.93;;;20.10;1.00;;;;;;5011940;28;20719;-64
2023/06/20 06:10:37;;;;;;;9.13;6.40;;;20.10;1.00;;;;;;5015831;28;20209;-63
2023/06/20 06:13:05;;;;;;;8.57;6.32;;;20.40;1.00;;;;;;4990819;28;20202;-64
2023/06/20 06:15:32;;;;;;;9.30;6.43;;;20.40;1.00;;;;;;5008267;28;20228;-63
2023/06/20 06:18:00;;;;;;;7.03;5.47;;;20.30;1.00;;;;;;4979590;28;21233;-64
2023/06/20 06:20:29;;;;;;;6.28;5.68;;;20.30;1.00;;;;;;4997389;28;20209;-64
2023/06/20 06:22:56;;;;;;;12.68;6.30;;;20.40;1.00;;;;;;5006287;28;20226;-64
2023/06/20 06:25:22;;;;;;;7.50;6.63;;;20.30;1.00;;;;;;4992235;28;20206;-64
2023/06/20 06:27:49;;;;;;;7.82;5.55;;;20.30;1.00;;;;;;4992723;28;20237;-63
2023/06/20 06:30:18;;;;;;;9.18;5.18;;;20.40;1.00;;;;;;4985330;28;20369;-64
2023/06/20 06:32:47;;;;;;;6.32;5.45;;;20.70;1.00;;;;;;5007511;28;20218;-63
2023/06/20 06:35:16;;;;;;;7.32;6.00;;;20.60;1.00;;;;;;4971013;28;20205;-63
2023/06/20 06:37:43;;;;;;;7.32;6.22;;;20.70;1.00;;;;;;5010932;28;20206;-64
2023/06/20 06:40:11;;;;;;;8.45;5.97;;;20.80;1.00;;;;;;5006793;28;20201;-64
2023/06/20 06:42:38;;;;;;;7.05;6.35;;;20.90;1.00;;;;;;5011009;28;20226;-63
2023/06/20 06:45:06;;;;;;;8.57;6.38;;;20.90;1.00;;;;;;4983813;28;20222;-64
2023/06/20 06:47:35;;;;;;;6.03;5.25;;;20.90;1.00;;;;;;5015198;28;20221;-64
2023/06/20 06:50:02;;;;;;;9.35;6.60;;;20.70;1.00;;;;;;4973695;28;20275;-64
2023/06/20 06:52:31;;;;;;;7.28;6.45;;;20.70;1.00;;;;;;5003541;28;20198;-64
2023/06/20 06:54:57;;;;;;;7.97;6.00;;;20.60;1.00;;;;;;5008177;28;20664;-65
2023/06/20 06:57:24;;;;;;;7.32;6.43;;;20.60;1.00;;;;;;5010399;28;20273;-65
2023/06/20 06:59:51;;;;;;;7.35;6.13;;;20.60;1.00;;;;;;5003864;28;20206;-64
2023/06/20 07:02:18;;;;;;;8.40;6.40;;;20.50;1.00;;;;;;5001334;28;20230;-64
2023/06/20 07:04:46;;;;;;;9.48;6.88;;;20.50;1.00;;;;;;4982995;28;20639;-64
2023/06/20 07:07:13;;;;;;;9.55;6.18;;;20.70;1.00;;;;;;5002724;28;20264;-63
2023/06/20 07:09:40;;;;;;;8.10;6.25;;;20.70;1.00;;;;;;5012792;28;20209;-64
2023/06/20 07:12:07;;;;;;;7.38;6.68;;;20.70;1.00;;;;;;5011258;28;20194;-64
2023/06/20 07:14:34;;;;;;;9.13;6.50;;;20.80;1.00;;;;;;4998737;28;20193;-64
2023/06/20 07:17:01;;;;;;;6.22;5.57;;;20.80;1.00;;;;;;5001499;28;20225;-64
2023/06/20 07:19:28;;;;;;;7.68;6.00;;;20.90;1.00;;;;;;4973086;28;20231;-63
2023/06/20 07:21:56;;;;;;;7.22;5.60;;;20.90;1.00;;;;;;5001583;28;20198;-64
2023/06/20 07:24:23;;;;;;;6.68;5.95;;;20.90;1.00;;;;;;5010656;28;20221;-64
2023/06/20 07:26:50;;;;;;;6.80;5.88;;;21.00;1.00;;;;;;5010857;28;20206;-63
2023/06/20 07:29:17;;;;;;;12.82;7.28;;;21.00;1.00;;;;;;5000008;28;20202;-64
2023/06/20 07:31:43;;;;;;;8.85;6.50;;;21.00;1.00;;;;;;4996268;28;20206;-64
2023/06/20 07:34:10;;;;;;;7.57;6.32;;;21.10;1.00;;;;;;5002672;28;20202;-63
2023/06/20 07:36:37;;;;;;;10.48;6.05;;;21.00;1.00;;;;;;4977546;28;20212;-64
2023/06/20 07:39:06;;;;;;;8.00;6.38;;;21.20;1.00;;;;;;5009295;28;21078;-64
2023/06/20 07:41:33;;;;;;;9.55;7.15;;;21.20;1.00;;;;;;5006782;28;20199;-64
2023/06/20 07:43:59;;;;;;;8.35;6.35;;;21.20;1.00;;;;;;4997780;28;20245;-64
2023/06/20 07:46:26;;;;;;;9.35;7.28;;;21.30;1.00;;;;;;5008055;28;20213;-63
2023/06/20 07:48:53;;;;;;;7.43;6.55;;;21.30;1.00;;;;;;4993966;28;20205;-64
2023/06/20 07:51:20;;;;;;;12.02;6.45;;;21.30;1.00;;;;;;4977774;28;20202;-64
2023/06/20 07:53:47;;;;;;;7.13;6.43;;;21.30;1.00;;;;;;4996811;28;20209;-64
2023/06/20 07:56:15;;;;;;;8.00;6.90;;;21.30;1.00;;;;;;5006122;28;20682;-64
2023/06/20 07:58:44;;;;;;;7.05;6.35;;;21.40;1.00;;;;;;5012165;28;20217;-64
2023/06/20 08:01:12;;;;;;;9.10;6.53;;;21.40;1.00;;;;;;4998806;28;20202;-64
2023/06/20 08:03:39;;;;;;;9.32;7.03;;;21.40;1.00;;;;;;4981773;28;21068;-64
2023/06/20 08:06:06;;;;;;;8.30;6.70;;;21.40;1.00;;;;;;4974475;28;20209;-64
2023/06/20 08:08:33;;;;;;;10.15;6.97;;;21.40;1.00;;;;;;4998626;28;20241;-63
2023/06/20 08:10:59;;;;;;;8.98;7.43;;;21.50;1.00;;;;;;4999568;28;20207;-63
2023/06/20 08:13:27;;;;;;;9.85;6.97;;;21.40;1.00;;;;;;5011420;28;20221;-64
2023/06/20 08:15:54;;;;;;;11.95;7.60;;;21.40;1.00;;;;;;5001938;28;20690;-64
2023/06/20 08:18:21;;;;;;;10.00;7.75;;;21.40;1.00;;;;;;5004685;28;20236;-63
2023/06/20 08:20:48;;;;;;;11.77;7.65;;;21.30;1.00;;;;;;5009300;28;20319;-64
2023/06/20 08:23:15;;;;;;;8.93;7.32;;;21.30;1.00;;;;;;4983580;28;20235;-64
2023/06/20 08:25:42;;;;;;;13.27;7.50;;;21.30;1.00;;;;;;4992516;28;20209;-64
2023/06/20 08:28:08;;;;;;;9.43;6.93;;;21.20;1.00;;;;;;5012834;28;20194;-63
2023/06/20 08:30:36;;;;;;;9.20;7.38;;;21.50;1.00;;;;;;5004999;28;20209;-64
2023/06/20 08:33:03;;;;;;;10.25;7.20;;;21.30;1.00;;;;;;5012035;28;20202;-63
2023/06/20 08:35:30;;;;;;;8.48;7.30;;;21.30;1.00;;;;;;5000916;28;20217;-64
2023/06/20 08:37:57;;;;;;;15.60;7.85;;;21.30;1.00;;;;;;4985584;28;21628;-64
2023/06/20 08:40:24;;;;;;;9.60;7.25;;;21.40;1.00;;;;;;5002024;28;20198;-65
2023/06/20 08:42:51;;;;;;;10.57;7.97;;;21.40;1.00;;;;;;5003676;28;20218;-64
2023/06/20 08:45:20;;;;;;;8.95;7.78;;;21.40;1.00;;;;;;5009436;28;20206;-64
2023/06/20 08:47:48;;;;;;;11.50;8.00;;;21.40;1.00;;;;;;5012982;28;20300;-64
2023/06/20 08:50:15;;;;;;;12.18;9.43;;;21.40;1.00;;;;;;5006917;28;20206;-64
2023/06/20 08:52:48;;;;;;;14.13;9.23;;;21.40;1.00;;;;;;4983179;28;20220;-64
2023/06/20 08:55:15;;;;;;;10.60;8.57;;;21.40;1.00;;;;;;5006872;28;20198;-64
2023/06/20 08:57:42;;;;;;;11.65;9.02;;;21.40;1.00;;;;;;5006425;28;21287;-64
2023/06/20 09:00:11;;;;;;;9.60;8.60;;;21.40;1.00;;;;;;5015028;28;20194;-64
2023/06/20 09:02:38;;;;;;;12.05;9.20;;;21.30;1.00;;;;;;5003215;28;20234;-64
2023/06/20 09:05:08;;;;;;;14.23;9.68;;;21.30;1.00;;;;;;5002501;28;20224;-64
2023/06/20 09:07:36;;;;;;;16.42;9.13;;;21.30;1.00;;;;;;5013189;28;20230;-64
2023/06/20 09:10:04;;;;;;;15.10;9.25;;;21.30;1.00;;;;;;4982099;28;20210;-64
2023/06/20 09:12:45;;;;;;;14.98;9.10;;;21.40;1.00;;;;;;4990144;28;20229;-64
2023/06/20 09:15:13;;;;;;;12.02;8.68;;;21.40;1.00;;;;;;5012146;28;20202;-63
2023/06/20 09:17:40;;;;;;;10.70;8.32;;;21.40;1.00;;;;;;5000576;28;20198;-63
2023/06/20 09:20:10;;;;;;;11.18;8.68;;;21.50;1.00;;;;;;5002572;28;20221;-64
2023/06/20 09:22:39;;;;;;;10.45;8.23;;;21.30;1.00;;;;;;5010136;28;20776;-64
2023/06/20 09:25:07;;;;;;;11.15;7.75;;;21.50;1.00;;;;;;4981478;28;20206;-64
2023/06/20 09:27:35;;;;;;;10.93;8.50;;;21.50;1.00;;;;;;4992685;28;20210;-64
2023/06/20 09:30:03;;;;;;;10.88;8.45;;;21.50;1.00;;;;;;5004724;28;20202;-64
2023/06/20 09:32:35;;;;;;;25.73;14.18;;;21.50;1.00;;;;;;4996824;28;20209;-64
2023/06/20 09:35:04;;;;;;;33.88;16.83;;;21.50;1.00;;;;;;5011036;28;20214;-64
2023/06/20 09:37:39;;;;;;;39.58;17.55;;;21.50;1.00;;;;;;4998718;28;20207;-63
2023/06/20 09:40:09;;;;;;;33.65;16.30;;;21.50;1.00;;;;;;5009428;28;20201;-64
2023/06/20 09:42:36;;;;;;;20.20;11.18;;;21.50;1.00;;;;;;4956433;28;20205;-64
2023/06/20 09:45:03;;;;;;;11.52;8.75;;;21.50;1.00;;;;;;5008337;28;20230;-64
2023/06/20 09:47:30;;;;;;;11.77;8.35;;;21.50;1.00;;;;;;5006218;28;20199;-63
2023/06/20 09:49:58;;;;;;;8.65;7.75;;;21.50;1.00;;;;;;5003207;28;20218;-63
2023/06/20 09:52:32;;;;;;;11.32;8.27;;;21.50;1.00;;;;;;4997178;28;20271;-64
2023/06/20 09:55:01;;;;;;;11.63;8.30;;;21.60;1.00;;;;;;5006057;28;20198;-64
2023/06/20 09:57:37;;;;;;;9.88;8.32;;;21.60;1.00;;;;;;4936043;28;20222;-63
2023/06/20 10:00:10;;;;;;;12.63;9.80;;;21.70;1.00;;;;;;4996887;28;20208;-64
2023/06/20 10:02:38;;;;;;;11.65;8.43;;;21.70;1.00;;;;;;4995016;28;20588;-64
2023/06/20 10:05:06;;;;;;;17.77;10.13;;;21.70;1.00;;;;;;4993471;28;20225;-64
2023/06/20 10:07:34;;;;;;;35.38;15.57;;;21.70;1.00;;;;;;4998263;28;20237;-63
2023/06/20 10:10:03;;;;;;;18.42;11.68;;;21.70;1.00;;;;;;5004809;28;20202;-64
2023/06/20 10:12:30;;;;;;;14.85;10.07;;;21.80;1.00;;;;;;4975476;28;21415;-64
2023/06/20 10:14:58;;;;;;;15.50;9.38;;;21.90;1.00;;;;;;4995096;28;20675;-63
2023/06/20 10:17:34;;;;;;;9.40;8.45;;;21.90;1.00;;;;;;4997677;28;20340;-64
2023/06/20 10:20:01;;;;;;;10.35;8.40;;;22.00;1.00;;;;;;4996289;28;20251;-64
2023/06/20 10:22:35;;;;;;;10.40;8.88;;;22.00;1.00;;;;;;4993603;28;20229;-64
2023/06/20 10:25:14;;;;;;;11.40;8.77;;;22.10;1.00;;;;;;5007993;28;20280;-64
2023/06/20 10:27:42;;;;;;;11.88;8.60;;;22.20;1.00;;;;;;5005811;28;20699;-63
2023/06/20 10:30:12;;;;;;;14.18;8.52;;;22.20;1.00;;;;;;4966196;28;20712;-64
2023/06/20 10:33:08;;;;;;;11.65;8.98;;;22.30;1.00;;;;;;4998662;28;20286;-64
2023/06/20 10:35:36;;;;;;;9.10;8.00;;;22.40;1.00;;;;;;4997990;28;20209;-63
2023/06/20 10:38:09;;;;;;;12.13;8.63;;;22.30;1.00;;;;;;5003856;28;20206;-64
2023/06/20 10:40:38;;;;;;;11.88;8.25;;;22.40;1.00;;;;;;5008593;28;20191;-64
2023/06/20 10:43:08;;;;;;;9.50;8.32;;;22.40;1.00;;;;;;5003530;28;20198;-64
2023/06/20 10:45:36;;;;;;;8.68;7.78;;;22.40;1.00;;;;;;4986300;28;20317;-63
2023/06/20 10:48:03;;;;;;;11.23;8.57;;;22.40;1.00;;;;;;5000838;28;20206;-64
2023/06/20 10:50:30;;;;;;;8.82;7.93;;;22.20;1.00;;;;;;4989816;28;21179;-63
2023/06/20 10:53:00;;;;;;;10.32;7.63;;;22.50;1.00;;;;;;4995371;28;20679;-64
2023/06/20 10:55:28;;;;;;;9.10;7.72;;;22.60;1.00;;;;;;4994809;28;20213;-63
2023/06/20 10:57:57;;;;;;;8.65;7.50;;;22.60;1.00;;;;;;4998385;28;20580;-63
2023/06/20 11:00:24;;;;;;;8.75;7.68;;;22.70;1.00;;;;;;4963495;28;20694;-63
2023/06/20 11:02:52;;;;;;;9.07;6.97;;;22.70;1.00;;;;;;4995177;28;20206;-63
2023/06/20 11:05:19;;;;;;;9.48;6.57;;;22.80;1.00;;;;;;5008794;28;20233;-64
2023/06/20 11:07:51;;;;;;;6.97;6.35;;;22.80;1.00;;;;;;5004797;28;20233;-64
2023/06/20 11:10:20;;;;;;;9.07;7.13;;;22.90;1.00;;;;;;5000209;28;20217;-64
2023/06/20 11:12:47;;;;;;;9.77;7.40;;;22.90;1.00;;;;;;4997402;28;20840;-64
2023/06/20 11:15:29;;;;;;;9.02;6.72;;;22.90;1.00;;;;;;4974069;28;20587;-64
2023/06/20 11:17:57;;;;;;;9.07;6.72;;;22.90;1.00;;;;;;4992079;28;20207;-64
2023/06/20 11:20:25;;;;;;;7.45;6.75;;;22.90;1.00;;;;;;4983086;28;20202;-64
2023/06/20 11:22:54;;;;;;;8.43;7.03;;;22.90;1.00;;;;;;4999654;28;20208;-64
2023/06/20 11:25:26;;;;;;;13.93;9.45;;;22.90;1.00;;;;;;4995153;28;21611;-64
2023/06/20 11:27:54;;;;;;;30.33;13.77;;;22.90;1.00;;;;;;4997320;28;20216;-64
2023/06/20 11:30:30;;;;;;;19.80;11.52;;;22.90;1.00;;;;;;4966955;28;20222;-67
2023/06/20 11:33:15;;;;;;;13.25;7.93;;;22.90;1.00;;;;;;4997142;28;20206;-64
2023/06/20 11:35:51;;;;;;;8.88;7.20;;;22.90;1.00;;;;;;4986048;28;20227;-64
2023/06/20 11:38:20;;;;;;;8.05;7.10;;;23.00;1.00;;;;;;4999128;28;20205;-64
2023/06/20 11:40:50;;;;;;;7.47;6.57;;;23.00;1.00;;;;;;4989692;28;20236;-64
2023/06/20 11:43:21;;;;;;;10.32;7.68;;;23.00;1.00;;;;;;4995604;28;20206;-64
2023/06/20 11:45:50;;;;;;;9.13;7.45;;;23.10;1.00;;;;;;4969608;28;20234;-63
2023/06/20 11:48:18;;;;;;;10.90;7.43;;;23.10;1.00;;;;;;4996651;28;20209;-64
2023/06/20 11:50:54;;;;;;;8.10;6.95;;;23.30;1.00;;;;;;4977674;28;20345;-64
2023/06/20 11:53:24;;;;;;;14.40;8.43;;;23.30;1.00;;;;;;4999199;28;20201;-64
2023/06/20 11:55:53;;;;;;;11.93;8.75;;;23.50;1.00;;;;;;4992841;28;20237;-62
2023/06/20 11:58:20;;;;;;;11.23;7.97;;;23.60;1.00;;;;;;5009514;28;20686;-64
2023/06/20 12:00:47;;;;;;;9.32;7.75;;;23.60;1.00;;;;;;4966502;28;20211;-63
2023/06/20 12:03:21;;;;;;;7.90;7.18;;;23.70;1.00;;;;;;4984130;28;20222;-64
2023/06/20 12:05:48;;;;;;;8.40;7.28;;;23.70;1.00;;;;;;4996467;28;20316;-64
2023/06/20 12:08:15;;;;;;;7.40;6.70;;;23.70;1.00;;;;;;4967802;28;20989;-64
2023/06/20 12:10:47;;;;;;;9.98;6.55;;;23.70;1.00;;;;;;4993537;28;20206;-63
2023/06/20 12:13:15;;;;;;;9.82;7.28;;;23.70;1.00;;;;;;4994204;28;20210;-64
2023/06/20 12:15:44;;;;;;;7.05;6.35;;;23.70;1.00;;;;;;4988348;28;20892;-64
2023/06/20 12:18:11;;;;;;;8.93;7.10;;;23.60;1.00;;;;;;4978607;28;20234;-64
2023/06/20 12:20:39;;;;;;;6.90;6.20;;;23.70;1.00;;;;;;4996207;28;20206;-64
2023/06/20 12:23:06;;;;;;;7.13;6.43;;;23.70;1.00;;;;;;4996282;28;20210;-64
2023/06/20 12:25:33;;;;;;;8.45;6.90;;;23.70;1.00;;;;;;4996328;28;20725;-64
2023/06/20 12:28:00;;;;;;;7.97;6.60;;;23.70;1.00;;;;;;4959728;28;21428;-64
2023/06/20 12:30:27;;;;;;;6.68;6.07;;;23.80;1.00;;;;;;4997008;28;20611;-64
2023/06/20 12:32:57;;;;;;;6.80;6.10;;;23.80;1.00;;;;;;4954024;28;20230;-64
2023/06/20 12:35:24;;;;;;;7.10;6.25;;;23.90;1.00;;;;;;4978621;28;20233;-64
2023/06/20 12:37:52;;;;;;;8.35;5.63;;;23.90;1.00;;;;;;4986233;28;20202;-64
2023/06/20 12:40:19;;;;;;;7.15;6.45;;;24.00;1.00;;;;;;4989246;28;20203;-63
2023/06/20 12:42:45;;;;;;;9.35;5.97;;;24.00;1.00;;;;;;4992302;28;20194;-64
2023/06/20 12:45:12;;;;;;;6.75;6.13;;;24.10;1.00;;;;;;4987455;28;20859;-64
2023/06/20 12:47:39;;;;;;;6.80;6.03;;;24.10;1.00;;;;;;4973905;28;20202;-64
2023/06/20 12:50:09;;;;;;;6.47;5.88;;;24.20;1.00;;;;;;4984123;28;20230;-64